createdAt,value
2017-07-10T00:00:48.731Z,16.97
2017-07-10T00:01:48.729Z,16.97
2017-07-10T00:02:48.736Z,16.95
2017-07-10T00:03:48.731Z,16.99
2017-07-10T00:05:48.734Z,16.98
2017-07-10T00:06:48.756Z,16.95
2017-07-10T00:07:48.677Z,16.99
2017-07-10T00:08:48.779Z,16.98
2017-07-10T00:09:48.653Z,16.94
2017-07-10T00:10:48.686Z,16.94
2017-07-10T00:11:48.657Z,16.91
2017-07-10T00:12:48.614Z,16.90
2017-07-10T00:13:48.620Z,16.90
2017-07-10T00:14:48.645Z,16.90
2017-07-10T00:15:48.656Z,16.88
2017-07-10T00:16:48.666Z,16.90
2017-07-10T00:17:48.741Z,16.94
2017-07-10T00:18:48.689Z,16.92
2017-07-10T00:19:48.778Z,16.91
2017-07-10T00:20:48.770Z,16.90
2017-07-10T00:21:48.742Z,16.91
2017-07-10T00:22:48.773Z,16.91
2017-07-10T00:23:48.767Z,16.94
2017-07-10T00:24:48.771Z,16.91
2017-07-10T00:25:48.773Z,16.90
2017-07-10T00:26:48.697Z,16.90
2017-07-10T00:27:48.766Z,16.87
2017-07-10T00:28:48.772Z,16.87
2017-07-10T00:29:48.690Z,16.87
2017-07-10T00:30:48.714Z,16.87
2017-07-10T00:31:48.785Z,16.87
2017-07-10T00:32:48.789Z,16.85
2017-07-10T00:33:48.792Z,16.85
2017-07-10T00:34:48.781Z,16.85
2017-07-10T00:35:48.697Z,16.87
2017-07-10T00:36:48.697Z,16.88
2017-07-10T00:37:48.685Z,16.88
2017-07-10T00:38:48.770Z,16.91
2017-07-10T00:39:48.774Z,16.92
2017-07-10T00:40:48.769Z,16.94
2017-07-10T00:41:48.775Z,16.92
2017-07-10T00:42:48.772Z,16.94
2017-07-10T00:43:48.773Z,16.94
2017-07-10T00:44:48.775Z,16.94
2017-07-10T00:45:48.775Z,16.97
2017-07-10T00:46:48.775Z,16.98
2017-07-10T00:47:48.763Z,16.99
2017-07-10T00:48:48.761Z,16.99
2017-07-10T00:49:48.765Z,16.99
2017-07-10T00:50:48.764Z,17.02
2017-07-10T00:51:48.761Z,17.05
2017-07-10T00:52:48.767Z,17.05
2017-07-10T00:53:48.765Z,17.06
2017-07-10T00:54:48.767Z,17.08
2017-07-10T00:55:48.764Z,17.09
2017-07-10T00:56:48.765Z,17.12
2017-07-10T00:57:48.806Z,17.13
2017-07-10T00:58:48.793Z,17.16
2017-07-10T00:59:48.716Z,17.16
2017-07-10T01:00:48.712Z,17.18
2017-07-10T01:01:48.717Z,17.16
2017-07-10T01:02:48.798Z,17.14
2017-07-10T01:03:48.773Z,17.13
2017-07-10T01:04:48.716Z,17.10
2017-07-10T01:05:48.771Z,17.09
2017-07-10T01:06:48.787Z,17.08
2017-07-10T01:07:48.773Z,17.09
2017-07-10T01:08:48.811Z,17.08
2017-07-10T01:09:48.761Z,17.08
2017-07-10T01:10:48.798Z,17.06
2017-07-10T01:11:48.771Z,17.05
2017-07-10T01:12:48.799Z,17.05
2017-07-10T01:13:48.720Z,17.05
2017-07-10T01:14:48.722Z,17.08
2017-07-10T01:15:48.791Z,17.16
2017-07-10T01:16:48.742Z,17.20
2017-07-10T01:17:48.780Z,17.21
2017-07-10T01:18:48.781Z,17.22
2017-07-10T01:19:48.780Z,17.25
2017-07-10T01:20:48.776Z,17.31
2017-07-10T01:21:48.776Z,17.36
2017-07-10T01:22:48.774Z,17.37
2017-07-10T01:23:48.776Z,17.39
2017-07-10T01:24:48.779Z,17.42
2017-07-10T01:25:48.780Z,17.43
2017-07-10T01:26:48.783Z,17.44
2017-07-10T01:27:48.780Z,17.44
2017-07-10T01:28:48.783Z,17.46
2017-07-10T01:29:48.795Z,17.47
2017-07-10T01:30:48.787Z,17.49
2017-07-10T01:31:48.785Z,17.51
2017-07-10T01:32:48.782Z,17.51
2017-07-10T01:33:48.783Z,17.53
2017-07-10T01:34:48.789Z,17.53
2017-07-10T01:35:48.788Z,17.55
2017-07-10T01:36:48.788Z,17.54
2017-07-10T01:37:48.787Z,17.57
2017-07-10T01:38:48.751Z,17.57
2017-07-10T01:39:48.821Z,17.58
2017-07-10T01:40:48.734Z,17.58
2017-07-10T01:41:48.817Z,17.60
2017-07-10T01:42:48.820Z,17.61
2017-07-10T01:43:48.753Z,17.62
2017-07-10T01:44:48.817Z,17.62
2017-07-10T01:45:48.816Z,17.64
2017-07-10T01:46:48.817Z,17.65
2017-07-10T01:47:48.822Z,17.65
2017-07-10T01:48:48.830Z,17.73
2017-07-10T01:49:48.812Z,17.77
2017-07-10T01:50:48.820Z,17.80
2017-07-10T01:51:48.833Z,17.85
2017-07-10T01:52:48.818Z,17.84
2017-07-10T01:53:48.833Z,17.85
2017-07-10T01:54:48.829Z,17.88
2017-07-10T01:55:48.835Z,17.88
2017-07-10T01:56:48.841Z,17.89
2017-07-10T01:57:48.825Z,17.92
2017-07-10T01:58:48.761Z,17.95
2017-07-10T01:59:48.840Z,17.96
2017-07-10T02:00:48.831Z,17.98
2017-07-10T02:01:48.747Z,18.00
2017-07-10T02:02:48.797Z,18.02
2017-07-10T02:03:48.832Z,18.03
2017-07-10T02:04:48.802Z,18.03
2017-07-10T02:05:48.830Z,18.06
2017-07-10T02:06:48.821Z,18.07
2017-07-10T02:07:48.825Z,18.10
2017-07-10T02:08:48.767Z,18.10
2017-07-10T02:09:48.826Z,18.10
2017-07-10T02:10:48.804Z,18.10
2017-07-10T02:11:48.840Z,18.10
2017-07-10T02:12:48.844Z,18.09
2017-07-10T02:13:48.810Z,18.07
2017-07-10T02:14:48.825Z,18.06
2017-07-10T02:15:48.757Z,18.07
2017-07-10T02:16:48.830Z,18.06
2017-07-10T02:17:48.809Z,18.06
2017-07-10T02:18:48.815Z,18.05
2017-07-10T02:19:48.827Z,18.03
2017-07-10T02:20:48.825Z,18.06
2017-07-10T02:21:48.824Z,18.02
2017-07-10T02:22:48.823Z,18.03
2017-07-10T02:23:48.825Z,18.03
2017-07-10T02:24:48.831Z,18.02
2017-07-10T02:25:48.832Z,18.00
2017-07-10T02:26:48.797Z,18.02
2017-07-10T02:27:48.829Z,18.00
2017-07-10T02:28:48.845Z,18.02
2017-07-10T02:29:48.820Z,18.02
2017-07-10T02:30:48.767Z,18.02
2017-07-10T02:31:48.853Z,18.03
2017-07-10T02:32:48.847Z,18.02
2017-07-10T02:33:48.782Z,18.02
2017-07-10T02:34:48.960Z,18.06
2017-07-10T02:35:48.798Z,18.05
2017-07-10T02:36:48.815Z,18.06
2017-07-10T02:37:48.772Z,18.06
2017-07-10T02:38:48.831Z,18.09
2017-07-10T02:39:48.833Z,18.10
2017-07-10T02:40:48.839Z,18.13
2017-07-10T02:41:48.813Z,18.14
2017-07-10T02:42:48.834Z,18.17
2017-07-10T02:43:48.872Z,18.20
2017-07-10T02:44:48.841Z,18.21
2017-07-10T02:45:48.851Z,18.23
2017-07-10T02:46:48.842Z,18.24
2017-07-10T02:47:48.840Z,18.24
2017-07-10T02:48:48.846Z,18.24
2017-07-10T02:49:48.863Z,18.24
2017-07-10T02:50:48.777Z,18.23
2017-07-10T02:51:48.845Z,18.23
2017-07-10T02:52:48.868Z,18.21
2017-07-10T02:53:48.873Z,18.20
2017-07-10T02:54:48.855Z,18.18
2017-07-10T02:55:48.766Z,18.17
2017-07-10T02:56:48.860Z,18.16
2017-07-10T02:57:48.793Z,18.16
2017-07-10T02:58:48.862Z,18.14
2017-07-10T02:59:48.871Z,18.14
2017-07-10T03:00:48.797Z,18.13
2017-07-10T03:01:48.847Z,18.13
2017-07-10T03:02:48.823Z,18.13
2017-07-10T03:03:48.863Z,18.13
2017-07-10T03:04:48.783Z,18.12
2017-07-10T03:05:48.865Z,18.13
2017-07-10T03:06:48.788Z,18.13
2017-07-10T03:07:48.790Z,18.12
2017-07-10T03:08:48.756Z,18.13
2017-07-10T03:09:48.772Z,18.12
2017-07-10T03:10:48.818Z,18.10
2017-07-10T03:11:48.846Z,18.10
2017-07-10T03:12:48.763Z,18.09
2017-07-10T03:13:48.759Z,18.09
2017-07-10T03:14:48.814Z,18.09
2017-07-10T03:15:48.851Z,18.09
2017-07-10T03:16:48.752Z,18.09
2017-07-10T03:17:48.755Z,18.09
2017-07-10T03:18:48.768Z,18.06
2017-07-10T03:19:48.817Z,18.06
2017-07-10T03:20:48.844Z,18.06
2017-07-10T03:21:48.747Z,18.06
2017-07-10T03:22:48.750Z,18.06
2017-07-10T03:23:48.719Z,18.07
2017-07-10T03:24:48.751Z,18.07
2017-07-10T03:25:48.863Z,18.05
2017-07-10T03:26:48.726Z,18.02
2017-07-10T03:27:48.871Z,17.99
2017-07-10T03:28:48.800Z,17.96
2017-07-10T03:29:48.843Z,17.94
2017-07-10T03:30:48.843Z,17.92
2017-07-10T03:31:48.891Z,17.91
2017-07-10T03:32:48.880Z,17.89
2017-07-10T03:33:48.886Z,17.88
2017-07-10T03:34:48.883Z,17.85
2017-07-10T03:35:48.804Z,17.85
2017-07-10T03:36:48.880Z,17.83
2017-07-10T03:37:48.890Z,17.79
2017-07-10T03:38:48.892Z,17.79
2017-07-10T03:39:48.881Z,17.76
2017-07-10T03:40:48.887Z,17.76
2017-07-10T03:41:48.888Z,17.79
2017-07-10T03:42:48.891Z,17.79
2017-07-10T03:43:48.892Z,17.79
2017-07-10T03:44:48.893Z,17.79
2017-07-10T03:45:48.890Z,17.80
2017-07-10T03:46:48.879Z,17.80
2017-07-10T03:47:48.859Z,17.79
2017-07-10T03:48:48.892Z,17.76
2017-07-10T03:49:48.988Z,17.73
2017-07-10T03:50:48.981Z,17.71
2017-07-10T03:51:48.888Z,17.71
2017-07-10T03:52:48.862Z,17.72
2017-07-10T03:53:48.877Z,17.73
2017-07-10T03:54:48.893Z,17.72
2017-07-10T03:55:48.902Z,17.72
2017-07-10T03:56:48.896Z,17.69
2017-07-10T03:57:48.816Z,17.69
2017-07-10T03:58:48.890Z,17.71
2017-07-10T03:59:48.861Z,17.72
2017-07-10T04:00:48.900Z,17.73
2017-07-10T04:01:48.869Z,17.73
2017-07-10T04:02:48.883Z,17.77
2017-07-10T04:03:48.902Z,17.77
2017-07-10T04:04:48.814Z,17.77
2017-07-10T04:05:48.888Z,17.77
2017-07-10T04:06:48.903Z,17.79
2017-07-10T04:07:48.898Z,17.80
2017-07-10T04:08:48.884Z,17.84
2017-07-10T04:09:48.888Z,17.88
2017-07-10T04:10:48.883Z,17.88
2017-07-10T04:11:48.886Z,17.91
2017-07-10T04:12:48.887Z,17.95
2017-07-10T04:13:48.894Z,17.96
2017-07-10T04:14:48.887Z,17.98
2017-07-10T04:15:48.889Z,17.98
2017-07-10T04:16:48.888Z,17.98
2017-07-10T04:17:48.891Z,17.99
2017-07-10T04:18:48.894Z,17.96
2017-07-10T04:19:48.910Z,17.96
2017-07-10T04:20:48.831Z,17.96
2017-07-10T04:21:48.836Z,17.96
2017-07-10T04:22:48.895Z,17.98
2017-07-10T04:23:48.898Z,17.98
2017-07-10T04:24:48.910Z,17.98
2017-07-10T04:25:48.912Z,17.99
2017-07-10T04:26:48.899Z,17.99
2017-07-10T04:27:48.826Z,18.00
2017-07-10T04:28:48.900Z,18.00
2017-07-10T04:29:48.895Z,17.98
2017-07-10T04:30:48.901Z,17.99
2017-07-10T04:31:48.913Z,17.95
2017-07-10T04:32:48.905Z,17.95
2017-07-10T04:33:48.905Z,17.92
2017-07-10T04:34:48.904Z,17.92
2017-07-10T04:35:48.903Z,17.89
2017-07-10T04:36:48.903Z,17.88
2017-07-10T04:37:48.904Z,17.89
2017-07-10T04:38:48.870Z,17.89
2017-07-10T04:39:48.859Z,17.91
2017-07-10T04:40:48.859Z,17.92
2017-07-10T04:41:48.856Z,17.94
2017-07-10T04:42:48.863Z,17.92
2017-07-10T04:43:48.822Z,17.91
2017-07-10T04:44:48.859Z,17.89
2017-07-10T04:45:48.833Z,17.89
2017-07-10T04:46:48.834Z,17.91
2017-07-10T04:47:48.910Z,17.92
2017-07-10T04:48:48.904Z,17.94
2017-07-10T04:49:48.910Z,17.95
2017-07-10T04:50:48.905Z,17.95
2017-07-10T04:51:48.908Z,17.96
2017-07-10T04:52:48.906Z,17.98
2017-07-10T04:53:48.904Z,17.98
2017-07-10T04:54:48.910Z,17.99
2017-07-10T04:55:49.014Z,18.00
2017-07-10T04:56:48.911Z,18.05
2017-07-10T04:57:48.915Z,18.07
2017-07-10T04:58:48.994Z,18.09
2017-07-10T04:59:48.915Z,18.09
2017-07-10T05:00:48.921Z,18.10
2017-07-10T05:01:48.913Z,18.06
2017-07-10T05:02:48.912Z,18.07
2017-07-10T05:03:48.914Z,18.07
2017-07-10T05:04:48.916Z,18.06
2017-07-10T05:05:48.913Z,18.09
2017-07-10T05:06:48.916Z,18.09
2017-07-10T05:07:48.905Z,18.12
2017-07-10T05:08:48.936Z,18.18
2017-07-10T05:09:48.893Z,18.25
2017-07-10T05:10:48.924Z,18.28
2017-07-10T05:11:48.876Z,18.31
2017-07-10T05:12:48.947Z,18.34
2017-07-10T05:13:48.860Z,18.32
2017-07-10T05:14:48.930Z,18.34
2017-07-10T05:15:48.850Z,18.28
2017-07-10T05:16:48.930Z,18.28
2017-07-10T05:17:48.942Z,18.25
2017-07-10T05:18:48.940Z,18.27
2017-07-10T05:19:48.925Z,18.31
2017-07-10T05:20:48.933Z,18.32
2017-07-10T05:21:48.940Z,18.32
2017-07-10T05:22:48.923Z,18.34
2017-07-10T05:23:48.861Z,18.38
2017-07-10T05:24:48.954Z,18.43
2017-07-10T05:25:48.930Z,18.48
2017-07-10T05:26:48.858Z,18.55
2017-07-10T05:27:48.857Z,18.59
2017-07-10T05:28:48.862Z,18.66
2017-07-10T05:29:48.906Z,18.72
2017-07-10T05:30:48.949Z,18.79
2017-07-10T05:31:48.859Z,18.88
2017-07-10T05:32:48.953Z,18.91
2017-07-10T05:33:48.871Z,18.91
2017-07-10T05:34:48.950Z,18.97
2017-07-10T05:35:48.957Z,19.03
2017-07-10T05:36:48.948Z,19.03
2017-07-10T05:37:48.931Z,19.06
2017-07-10T05:38:48.935Z,19.09
2017-07-10T05:39:48.958Z,19.06
2017-07-10T05:40:48.933Z,19.02
2017-07-10T05:41:48.949Z,19.06
2017-07-10T05:42:48.877Z,19.06
2017-07-10T05:43:48.871Z,19.08
2017-07-10T05:44:48.940Z,19.08
2017-07-10T05:45:48.958Z,19.02
2017-07-10T05:46:48.913Z,18.99
2017-07-10T05:47:48.942Z,18.99
2017-07-10T05:48:48.964Z,18.98
2017-07-10T05:49:48.928Z,19.01
2017-07-10T05:50:48.928Z,19.01
2017-07-10T05:51:48.930Z,19.01
2017-07-10T05:52:48.930Z,19.03
2017-07-10T05:53:48.933Z,19.03
2017-07-10T05:54:48.931Z,19.06
2017-07-10T05:55:48.932Z,19.06
2017-07-10T05:56:48.930Z,19.08
2017-07-10T05:57:48.930Z,19.09
2017-07-10T05:58:48.935Z,19.12
2017-07-10T05:59:48.948Z,19.13
2017-07-10T06:00:48.946Z,19.13
2017-07-10T06:01:48.865Z,19.13
2017-07-10T06:02:48.861Z,19.15
2017-07-10T06:03:48.953Z,19.17
2017-07-10T06:04:48.948Z,19.17
2017-07-10T06:05:48.948Z,19.20
2017-07-10T06:06:48.951Z,19.21
2017-07-10T06:07:48.865Z,19.24
2017-07-10T06:08:48.949Z,19.25
2017-07-10T06:09:48.885Z,19.21
2017-07-10T06:10:48.965Z,19.21
2017-07-10T06:11:48.977Z,19.16
2017-07-10T06:12:48.878Z,19.16
2017-07-10T06:13:48.885Z,19.19
2017-07-10T06:14:48.987Z,19.24
2017-07-10T06:15:48.955Z,19.25
2017-07-10T06:16:48.895Z,19.27
2017-07-10T06:17:48.981Z,19.27
2017-07-10T06:18:48.884Z,19.28
2017-07-10T06:19:48.940Z,19.32
2017-07-10T06:20:48.943Z,19.33
2017-07-10T06:21:48.945Z,19.39
2017-07-10T06:22:48.943Z,19.43
2017-07-10T06:23:48.945Z,19.40
2017-07-10T06:24:48.945Z,19.43
2017-07-10T06:25:48.946Z,19.47
2017-07-10T06:26:48.950Z,19.53
2017-07-10T06:27:48.955Z,19.62
2017-07-10T06:28:48.953Z,19.70
2017-07-10T06:29:48.950Z,19.74
2017-07-10T06:30:48.950Z,19.77
2017-07-10T06:31:48.955Z,19.76
2017-07-10T06:32:48.949Z,19.77
2017-07-10T06:33:48.949Z,19.76
2017-07-10T06:34:48.951Z,19.77
2017-07-10T06:35:48.951Z,19.80
2017-07-10T06:36:48.952Z,19.85
2017-07-10T06:37:48.953Z,19.87
2017-07-10T06:38:48.951Z,19.90
2017-07-10T06:39:48.907Z,19.94
2017-07-10T06:40:48.962Z,19.91
2017-07-10T06:41:48.950Z,19.88
2017-07-10T06:42:48.996Z,19.90
2017-07-10T06:43:48.948Z,19.90
2017-07-10T06:44:48.906Z,19.81
2017-07-10T06:45:48.905Z,19.77
2017-07-10T06:46:48.912Z,19.79
2017-07-10T06:47:48.954Z,19.76
2017-07-10T06:48:48.986Z,19.77
2017-07-10T06:49:49.001Z,19.76
2017-07-10T06:50:48.957Z,19.77
2017-07-10T06:51:48.994Z,19.79
2017-07-10T06:52:48.912Z,19.83
2017-07-10T06:53:49.003Z,19.84
2017-07-10T06:54:48.909Z,19.79
2017-07-10T06:55:49.004Z,19.77
2017-07-10T06:56:48.930Z,19.73
2017-07-10T06:57:49.001Z,19.73
2017-07-10T06:58:48.959Z,19.73
2017-07-10T06:59:49.003Z,19.73
2017-07-10T07:00:49.007Z,19.72
2017-07-10T07:01:49.003Z,19.72
2017-07-10T07:02:48.977Z,19.70
2017-07-10T07:03:48.999Z,19.70
2017-07-10T07:04:48.994Z,19.73
2017-07-10T07:05:49.036Z,19.70
2017-07-10T07:06:49.010Z,19.73
2017-07-10T07:07:49.001Z,19.72
2017-07-10T07:08:48.983Z,19.73
2017-07-10T07:09:48.985Z,19.73
2017-07-10T07:10:48.991Z,19.70
2017-07-10T07:11:48.972Z,19.73
2017-07-10T07:12:48.992Z,19.74
2017-07-10T07:13:48.984Z,19.74
2017-07-10T07:14:48.987Z,19.76
2017-07-10T07:15:48.985Z,19.79
2017-07-10T07:16:48.987Z,19.85
2017-07-10T07:17:48.985Z,19.92
2017-07-10T07:18:49.050Z,19.95
2017-07-10T07:19:48.990Z,19.96
2017-07-10T07:20:48.994Z,20.01
2017-07-10T07:21:48.990Z,20.03
2017-07-10T07:22:49.017Z,20.05
2017-07-10T07:23:48.993Z,20.10
2017-07-10T07:24:49.070Z,20.13
2017-07-10T07:25:48.993Z,20.16
2017-07-10T07:26:48.998Z,20.21
2017-07-10T07:27:48.995Z,20.24
2017-07-10T07:28:48.993Z,20.23
2017-07-10T07:29:48.935Z,20.25
2017-07-10T07:30:49.007Z,20.31
2017-07-10T07:31:49.017Z,20.28
2017-07-10T07:32:48.940Z,20.30
2017-07-10T07:33:48.926Z,20.30
2017-07-10T07:34:49.016Z,20.34
2017-07-10T07:35:48.934Z,20.36
2017-07-10T07:36:48.936Z,20.38
2017-07-10T07:37:49.021Z,20.41
2017-07-10T07:38:49.020Z,20.38
2017-07-10T07:39:48.934Z,20.41
2017-07-10T07:40:49.025Z,20.36
2017-07-10T07:41:48.934Z,20.31
2017-07-10T07:42:49.023Z,20.23
2017-07-10T07:43:48.934Z,20.20
2017-07-10T07:44:48.943Z,20.10
2017-07-10T07:45:49.025Z,20.05
2017-07-10T07:46:49.012Z,20.02
2017-07-10T07:47:49.009Z,20.05
2017-07-10T07:48:49.027Z,20.09
2017-07-10T07:49:48.990Z,20.05
2017-07-10T07:50:49.014Z,20.12
2017-07-10T07:51:49.025Z,20.18
2017-07-10T07:52:48.940Z,20.25
2017-07-10T07:53:49.026Z,20.35
2017-07-10T07:54:49.025Z,20.41
2017-07-10T07:55:49.027Z,20.47
2017-07-10T07:56:48.995Z,20.53
2017-07-10T07:57:48.993Z,20.57
2017-07-10T07:58:49.038Z,20.57
2017-07-10T07:59:49.035Z,20.60
2017-07-10T08:00:49.014Z,20.69
2017-07-10T08:01:49.010Z,20.76
2017-07-10T08:02:49.014Z,20.79
2017-07-10T08:03:49.018Z,20.82
2017-07-10T08:04:49.013Z,20.72
2017-07-10T08:05:49.017Z,20.72
2017-07-10T08:06:49.018Z,20.73
2017-07-10T08:07:49.022Z,20.77
2017-07-10T08:08:48.940Z,20.80
2017-07-10T08:09:48.960Z,20.76
2017-07-10T08:10:48.999Z,20.69
2017-07-10T08:11:48.999Z,20.69
2017-07-10T08:12:49.038Z,20.65
2017-07-10T08:13:48.948Z,20.65
2017-07-10T08:14:48.956Z,20.61
2017-07-10T08:15:49.049Z,20.66
2017-07-10T08:16:49.016Z,20.72
2017-07-10T08:17:49.037Z,20.73
2017-07-10T08:18:49.053Z,20.77
2017-07-10T08:19:49.042Z,20.80
2017-07-10T08:20:49.018Z,20.87
2017-07-10T08:21:49.038Z,20.83
2017-07-10T08:22:48.981Z,20.83
2017-07-10T08:23:49.046Z,20.80
2017-07-10T08:24:49.065Z,20.83
2017-07-10T08:25:49.029Z,20.93
2017-07-10T08:26:49.032Z,20.86
2017-07-10T08:27:49.031Z,20.84
2017-07-10T08:28:49.031Z,20.73
2017-07-10T08:29:49.020Z,20.75
2017-07-10T08:30:49.018Z,20.77
2017-07-10T08:31:49.018Z,20.79
2017-07-10T08:32:49.019Z,20.82
2017-07-10T08:33:49.024Z,20.79
2017-07-10T08:34:49.020Z,20.82
2017-07-10T08:35:49.018Z,20.86
2017-07-10T08:36:49.023Z,20.91
2017-07-10T08:37:49.019Z,20.98
2017-07-10T08:38:49.024Z,21.02
2017-07-10T08:39:49.037Z,21.06
2017-07-10T08:40:49.046Z,21.02
2017-07-10T08:41:49.038Z,20.95
2017-07-10T08:42:49.039Z,20.91
2017-07-10T08:43:49.053Z,20.93
2017-07-10T08:44:49.039Z,20.98
2017-07-10T08:45:49.041Z,21.01
2017-07-10T08:46:49.041Z,20.94
2017-07-10T08:47:49.045Z,20.88
2017-07-10T08:48:49.048Z,20.80
2017-07-10T08:49:49.044Z,20.68
2017-07-10T08:50:49.043Z,20.61
2017-07-10T08:51:49.049Z,20.57
2017-07-10T08:52:49.047Z,20.56
2017-07-10T08:53:48.965Z,20.53
2017-07-10T08:54:49.060Z,20.45
2017-07-10T08:55:49.048Z,20.39
2017-07-10T08:56:49.133Z,20.38
2017-07-10T08:57:49.051Z,20.30
2017-07-10T08:58:49.051Z,20.17
2017-07-10T08:59:49.040Z,20.13
2017-07-10T09:00:49.033Z,20.05
2017-07-10T09:01:49.035Z,19.95
2017-07-10T09:02:49.036Z,19.91
2017-07-10T09:03:49.040Z,19.90
2017-07-10T09:04:49.036Z,19.88
2017-07-10T09:05:49.041Z,19.74
2017-07-10T09:06:49.037Z,19.66
2017-07-10T09:07:49.041Z,19.64
2017-07-10T09:08:49.041Z,19.64
2017-07-10T09:09:49.039Z,19.64
2017-07-10T09:10:49.091Z,19.61
2017-07-10T09:11:49.053Z,19.58
2017-07-10T09:12:49.070Z,19.53
2017-07-10T09:13:49.089Z,19.44
2017-07-10T09:14:49.057Z,19.44
2017-07-10T09:15:49.057Z,19.40
2017-07-10T09:16:49.072Z,19.35
2017-07-10T09:17:49.071Z,19.31
2017-07-10T09:18:49.108Z,19.32
2017-07-10T09:19:49.060Z,19.27
2017-07-10T09:20:49.084Z,19.27
2017-07-10T09:21:49.074Z,19.28
2017-07-10T09:22:48.999Z,19.25
2017-07-10T09:23:49.086Z,19.28
2017-07-10T09:24:48.992Z,19.28
2017-07-10T09:25:49.065Z,19.25
2017-07-10T09:26:49.083Z,19.25
2017-07-10T09:27:49.078Z,19.24
2017-07-10T09:28:49.044Z,19.25
2017-07-10T09:29:49.087Z,19.24
2017-07-10T09:30:49.071Z,19.20
2017-07-10T09:31:49.068Z,19.19
2017-07-10T09:32:49.065Z,19.19
2017-07-10T09:33:49.064Z,19.17
2017-07-10T09:34:49.068Z,19.15
2017-07-10T09:35:49.067Z,19.09
2017-07-10T09:36:49.072Z,19.06
2017-07-10T09:37:49.064Z,19.08
2017-07-10T09:38:49.070Z,19.09
2017-07-10T09:39:49.070Z,19.13
2017-07-10T09:40:49.011Z,19.17
2017-07-10T09:41:49.064Z,19.15
2017-07-10T09:42:49.069Z,19.09
2017-07-10T09:43:49.070Z,19.03
2017-07-10T09:44:49.091Z,19.02
2017-07-10T09:45:49.142Z,19.06
2017-07-10T09:46:49.102Z,19.09
2017-07-10T09:47:49.090Z,19.10
2017-07-10T09:48:49.071Z,19.05
2017-07-10T09:49:49.056Z,19.03
2017-07-10T09:50:49.011Z,19.08
2017-07-10T09:51:49.091Z,19.10
2017-07-10T09:52:49.074Z,19.13
2017-07-10T09:53:49.075Z,19.13
2017-07-10T09:54:49.101Z,19.12
2017-07-10T09:55:49.092Z,19.08
2017-07-10T09:56:49.096Z,19.02
2017-07-10T09:57:49.014Z,19.03
2017-07-10T09:58:49.098Z,19.05
2017-07-10T09:59:49.004Z,19.06
2017-07-10T10:00:49.059Z,19.08
2017-07-10T10:01:49.111Z,19.09
2017-07-10T10:02:49.095Z,19.08
2017-07-10T10:03:49.018Z,19.02
2017-07-10T10:04:49.012Z,18.97
2017-07-10T10:05:49.065Z,18.99
2017-07-10T10:06:49.106Z,18.90
2017-07-10T10:07:49.100Z,18.80
2017-07-10T10:08:49.062Z,18.76
2017-07-10T10:09:49.061Z,18.75
2017-07-10T10:10:49.089Z,18.72
2017-07-10T10:11:49.008Z,18.70
2017-07-10T10:12:49.057Z,18.72
2017-07-10T10:13:49.026Z,18.68
2017-07-10T10:14:49.112Z,18.65
2017-07-10T10:15:49.057Z,18.58
2017-07-10T10:16:49.011Z,18.62
2017-07-10T10:17:49.095Z,18.62
2017-07-10T10:18:49.007Z,18.65
2017-07-10T10:19:49.058Z,18.70
2017-07-10T10:20:49.032Z,18.77
2017-07-10T10:21:49.118Z,18.80
2017-07-10T10:22:49.022Z,18.87
2017-07-10T10:23:49.116Z,19.05
2017-07-10T10:24:49.111Z,19.10
2017-07-10T10:25:49.027Z,19.12
2017-07-10T10:26:49.110Z,19.09
2017-07-10T10:27:49.106Z,19.21
2017-07-10T10:28:49.111Z,19.25
2017-07-10T10:29:49.112Z,19.19
2017-07-10T10:30:49.094Z,19.15
2017-07-10T10:31:49.093Z,19.20
2017-07-10T10:32:49.099Z,19.29
2017-07-10T10:33:49.094Z,19.28
2017-07-10T10:34:49.095Z,19.32
2017-07-10T10:35:49.108Z,19.39
2017-07-10T10:36:49.095Z,19.46
2017-07-10T10:37:49.106Z,19.57
2017-07-10T10:38:49.104Z,19.68
2017-07-10T10:39:49.102Z,19.65
2017-07-10T10:40:49.086Z,19.76
2017-07-10T10:41:49.086Z,19.77
2017-07-10T10:42:49.091Z,19.80
2017-07-10T10:43:49.092Z,19.92
2017-07-10T10:44:49.092Z,19.98
2017-07-10T10:45:49.091Z,19.94
2017-07-10T10:46:49.094Z,19.90
2017-07-10T10:47:49.091Z,19.76
2017-07-10T10:48:49.094Z,19.65
2017-07-10T10:49:49.091Z,19.60
2017-07-10T10:50:49.105Z,19.60
2017-07-10T10:51:49.189Z,19.61
2017-07-10T10:52:49.103Z,19.54
2017-07-10T10:53:49.123Z,19.61
2017-07-10T10:54:49.040Z,19.72
2017-07-10T10:55:49.149Z,19.80
2017-07-10T10:56:49.130Z,19.88
2017-07-10T10:57:49.132Z,19.98
2017-07-10T10:58:49.045Z,19.94
2017-07-10T10:59:49.130Z,19.96
2017-07-10T11:00:49.139Z,20.01
2017-07-10T11:01:49.090Z,20.13
2017-07-10T11:02:49.051Z,20.10
2017-07-10T11:03:49.135Z,20.07
2017-07-10T11:04:49.136Z,20.13
2017-07-10T11:05:49.049Z,20.13
2017-07-10T11:06:49.136Z,20.07
2017-07-10T11:07:49.110Z,20.03
2017-07-10T11:08:49.138Z,20.05
2017-07-10T11:09:49.052Z,20.09
2017-07-10T11:10:49.140Z,20.10
2017-07-10T11:11:49.081Z,20.01
2017-07-10T11:12:49.141Z,20.01
2017-07-10T11:13:49.058Z,20.01
2017-07-10T11:14:49.095Z,19.96
2017-07-10T11:15:49.098Z,19.94
2017-07-10T11:16:49.060Z,19.94
2017-07-10T11:17:49.135Z,19.92
2017-07-10T11:18:49.104Z,19.92
2017-07-10T11:19:49.113Z,19.91
2017-07-10T11:20:49.151Z,19.88
2017-07-10T11:21:49.133Z,19.87
2017-07-10T11:22:49.132Z,19.87
2017-07-10T11:23:49.119Z,19.94
2017-07-10T11:24:49.144Z,19.94
2017-07-10T11:25:49.149Z,19.99
2017-07-10T11:26:49.146Z,20.01
2017-07-10T11:27:49.148Z,20.01
2017-07-10T11:28:49.145Z,20.01
2017-07-10T11:29:49.147Z,20.09
2017-07-10T11:30:49.143Z,20.21
2017-07-10T11:31:49.127Z,20.23
2017-07-10T11:32:49.133Z,20.20
2017-07-10T11:33:49.131Z,20.27
2017-07-10T11:34:49.132Z,20.31
2017-07-10T11:35:49.136Z,20.32
2017-07-10T11:36:49.138Z,20.38
2017-07-10T11:37:49.051Z,20.41
2017-07-10T11:38:49.158Z,20.41
2017-07-10T11:39:49.133Z,20.52
2017-07-10T11:40:49.139Z,20.61
2017-07-10T11:41:49.139Z,20.66
2017-07-10T11:42:49.137Z,20.70
2017-07-10T11:43:49.138Z,20.66
2017-07-10T11:44:49.141Z,20.69
2017-07-10T11:45:49.141Z,20.77
2017-07-10T11:46:49.140Z,20.82
2017-07-10T11:47:49.143Z,20.84
2017-07-10T11:48:49.142Z,20.82
2017-07-10T11:49:49.144Z,20.91
2017-07-10T11:50:49.148Z,20.99
2017-07-10T11:51:49.143Z,21.09
2017-07-10T11:52:49.145Z,21.05
2017-07-10T11:53:49.143Z,21.01
2017-07-10T11:54:49.247Z,21.02
2017-07-10T11:55:49.152Z,21.09
2017-07-10T11:56:49.160Z,21.14
2017-07-10T11:57:49.148Z,21.13
2017-07-10T11:58:49.147Z,21.21
2017-07-10T11:59:49.149Z,21.29
2017-07-10T12:00:49.147Z,21.47
2017-07-10T12:01:49.148Z,21.62
2017-07-10T12:02:49.146Z,21.75
2017-07-10T12:03:49.160Z,21.79
2017-07-10T12:04:49.151Z,21.87
2017-07-10T12:05:49.150Z,21.94
2017-07-10T12:06:49.151Z,21.91
2017-07-10T12:07:49.154Z,21.90
2017-07-10T12:08:49.152Z,21.89
2017-07-10T12:09:49.153Z,21.87
2017-07-10T12:10:49.145Z,21.79
2017-07-10T12:11:49.142Z,21.80
2017-07-10T12:12:49.137Z,21.65
2017-07-10T12:13:49.140Z,21.50
2017-07-10T12:14:49.137Z,21.43
2017-07-10T12:15:49.141Z,21.34
2017-07-10T12:16:49.143Z,21.32
2017-07-10T12:17:49.144Z,21.28
2017-07-10T12:18:49.142Z,21.22
2017-07-10T12:19:49.148Z,21.25
2017-07-10T12:20:49.149Z,21.34
2017-07-10T12:21:49.150Z,21.38
2017-07-10T12:22:49.146Z,21.50
2017-07-10T12:23:49.146Z,21.57
2017-07-10T12:24:49.136Z,21.67
2017-07-10T12:25:49.149Z,21.73
2017-07-10T12:26:49.149Z,21.90
2017-07-10T12:27:49.149Z,22.08
2017-07-10T12:28:49.148Z,22.34
2017-07-10T12:29:49.153Z,22.52
2017-07-10T12:30:49.156Z,22.64
2017-07-10T12:31:49.151Z,22.88
2017-07-10T12:32:49.155Z,23.12
2017-07-10T12:33:49.154Z,23.30
2017-07-10T12:34:49.156Z,23.82
2017-07-10T12:35:49.152Z,24.05
2017-07-10T12:36:49.154Z,24.22
2017-07-10T12:37:49.156Z,24.47
2017-07-10T12:38:49.156Z,24.75
2017-07-10T12:39:49.157Z,24.94
2017-07-10T12:40:49.080Z,24.70
2017-07-10T12:41:49.158Z,24.61
2017-07-10T12:42:49.156Z,24.30
2017-07-10T12:43:49.162Z,24.05
2017-07-10T12:44:49.157Z,23.75
2017-07-10T12:45:49.160Z,23.53
2017-07-10T12:46:49.157Z,23.20
2017-07-10T12:47:49.159Z,22.87
2017-07-10T12:48:49.159Z,22.70
2017-07-10T12:49:49.164Z,22.84
2017-07-10T12:50:49.161Z,23.16
2017-07-10T12:51:49.162Z,23.35
2017-07-10T12:52:49.161Z,23.35
2017-07-10T12:53:49.162Z,23.23